Greenwood Leflore Airport
KGWO : now visible

Airfield :











YOU CAN JOIN US ON...

 
LOGIN :

Register | Disclaimer

   EN    FR    IT 

 









Legend :    VFR   Marginal VFR   IFR   Intensive IFR   Very Intensive IFR
Visi :
Ceiling :
>= 8 km
>= 3000ft
5 to 8 km
1000 to 3000 ft
1500m to 5 km
500 to 1000 ft
800 to 1500m
200 to 500 ft
< 800m
< 200 ft
Symbols :   Thunderstorms  Fog  Heavy snow  Heavy precipitations  Wind > 20 kt






- Airport Elevation : 162 ft


KGWO - Greenwood Leflore

CURRENT METAR :
  • 141653Z AUTO 26003KT 10SM FEW075 OVC090 07/00 A3031 RMK AO2 SLP266 T00720000

EXPIRED METARs :
  • 141553Z AUTO 00000KT 10SM SCT070 OVC090 07/01 A3031 RMK AO2 SLP265 T00670011

TAF KGWO
Valid from the 14 at 12:00 until the 15 at 12:00 UTC


141120Z 1412/1512 00000KT P6SM SCT100 OVC250
FM141500 30004KT P6SM OVC040
FM150100 02003KT P6SM SCT050 BKN100
FM150500 36003KT P6SM SCT250



MET'MAP, your aeronautical weather chart ! - Copyright ORBIFLY December 2007 - Disclaimer

ORBIFLY MET'MAP TEAM :

Programming & Development : Alexandra Zaïnal
Concept & Development : Baudouin d'Aumeries
Co-Development & Prog : Marc-Olivier Méhu
Technical & hardware support : Manuel Goepfert

Contact : metmap@orbifly.com




SOURCES & CREDITS :

   NOAA       Earth
Advisory